Portada
METAR-TAF:

METAR-TAF

Aeroports :

Clearfield-Lawrence Airport

Clearfield, Pennsilvània, Estats Units d'Amèrica

latitud: 41-02-48N, longitud: 078-24-42W, altitud: 462 m

Observació

L'informe es va fer fa 31 minuts, a les 13:28 UTC
Vent 4 kt del Est
Temperatura 1°C
Humitat 86%
Pressió 1011 hPa
Visibilitat: 16.1 km
Cel cobert a una alçada de 500 ft

METAR: KFIG 181328Z AUTO 09004KT 10SM OVC005 01/M01 A2984 RMK AO2 CIG 002V007 T00061006

Hora: 08:59 (13:59 UTC)


TAF: manca

Observacions i pronòstics meteorològics de més de 4000 aeroports (METAR i TAF).

Les estacions disponibles són els punts grocs i vermells al mapa.

Posi el ratolí al punt desitjat per veure el nom de l'estació.

Feu clic per veure les observacions i els pronòstics meteorològics.

Per canviar el mapa: feu clic els botons verds amb una creu de color negre per apropar; al botó verd amb un guió per allunyar la imatge; o en les fletxes verdes per a mapes adjacents.


METAR-TAF: